Hauptseite
METAR-TAF:

METAR-TAF

Flughäfen :

Flughafen Stockholm/Arlanda

Stockholm-Arlanda, Schweden

Breite: 59-39N, Länge: 017-57E, Höhe: 38 m

Beobachtung

Neuester Wetterbericht von vor 32 Minuten, um 07:20 UTC
Wind 10 kt aus Nord/Nordost
Temperatur 18°C
Luftfeuchtigkeit 42%
Luftdruck 1031 hPa
Sichtweite 10 km oder mehr
keine Wolken unter 1500 m und keine Kumulonimbus oder Gewitterwolken

METAR: ESSA 270720Z 03010KT CAVOK 18/05 Q1031 NOSIG

Zeit: 09:52 (07:52 UTC)

Prognose

Neuester Wetterbericht von vor 2 Stunden und 22 Minuten, um 05:30 UTC
Gültige Prognose vom 27 um 06 UTC bis 28 um 06 UTC
Wind 13 kt aus Nordost
Sichtweite 10 km oder mehr
keine Wolken unter 1500 m und keine Kumulonimbus oder Gewitterwolken
Übergehend zu
vom 27 um 20 UTC bis 27 um 22 UTC
Wind 3 kt aus Nord/Nordost

TAF: ESSA 270530Z 2706/2806 04013KT CAVOK BECMG 2720/2722 03003KT

Wetterbeobachtungen und Prognosen von mehr als 4000 Flughäfen (METAR und TAF Bericht).

Die verfügbaren Stationen werden durch gelbe und rote Markierungen auf der Karte dargestellt.

Führen Sie die Maus auf sie, um den Namen der Station zu sehen.

Darauf klicken, um die Beobachtung von Wetterbeobachtungen und Prognosen zu sehen.

Um die Karte zu ändern : klicken Sie auf den grünen Tasten mit einem schwarzen Kreuz Zum Vergrößern, auf den grünen Button mit einem Gedankenstrich zu verkleinern, oder auf die grünen Pfeile für benachbarte Karten.


METAR-TAF: